sensor_id;sensor_type;location;lat;lon;timestamp;P1;durP1;ratioP1;P2;durP2;ratioP2
26042;SDS011;13818;52.156;5.382;2023-07-28T00:01:25;13.43;;;6.82;;
26042;SDS011;13818;52.156;5.382;2023-07-28T00:03:51;12.75;;;6.75;;
26042;SDS011;13818;52.156;5.382;2023-07-28T00:06:18;12.98;;;6.10;;
26042;SDS011;13818;52.156;5.382;2023-07-28T00:08:44;12.20;;;6.80;;
26042;SDS011;13818;52.156;5.382;2023-07-28T00:11:11;13.82;;;6.30;;
26042;SDS011;13818;52.156;5.382;2023-07-28T00:13:40;13.80;;;6.40;;
26042;SDS011;13818;52.156;5.382;2023-07-28T00:16:07;11.55;;;6.55;;
26042;SDS011;13818;52.156;5.382;2023-07-28T00:18:36;12.68;;;6.18;;
26042;SDS011;13818;52.156;5.382;2023-07-28T00:23:30;11.15;;;6.95;;
26042;SDS011;13818;52.156;5.382;2023-07-28T00:25:57;9.77;;;6.05;;
26042;SDS011;13818;52.156;5.382;2023-07-28T00:28:23;13.43;;;6.65;;
26042;SDS011;13818;52.156;5.382;2023-07-28T00:30:50;11.57;;;6.25;;
26042;SDS011;13818;52.156;5.382;2023-07-28T00:33:17;10.23;;;5.45;;
26042;SDS011;13818;52.156;5.382;2023-07-28T00:35:45;9.13;;;4.95;;
26042;SDS011;13818;52.156;5.382;2023-07-28T00:38:11;11.82;;;6.43;;
26042;SDS011;13818;52.156;5.382;2023-07-28T00:40:39;11.43;;;5.40;;
26042;SDS011;13818;52.156;5.382;2023-07-28T00:43:05;9.90;;;4.63;;
26042;SDS011;13818;52.156;5.382;2023-07-28T00:45:32;9.77;;;4.55;;
26042;SDS011;13818;52.156;5.382;2023-07-28T00:47:59;8.98;;;5.22;;
26042;SDS011;13818;52.156;5.382;2023-07-28T00:50:26;9.25;;;5.05;;
26042;SDS011;13818;52.156;5.382;2023-07-28T00:52:55;9.90;;;6.28;;
26042;SDS011;13818;52.156;5.382;2023-07-28T00:55:22;8.18;;;4.55;;
26042;SDS011;13818;52.156;5.382;2023-07-28T00:57:48;9.95;;;4.63;;
26042;SDS011;13818;52.156;5.382;2023-07-28T01:00:16;9.80;;;5.60;;
26042;SDS011;13818;52.156;5.382;2023-07-28T01:02:43;9.25;;;4.68;;
26042;SDS011;13818;52.156;5.382;2023-07-28T01:05:10;10.35;;;5.35;;
26042;SDS011;13818;52.156;5.382;2023-07-28T01:07:39;12.65;;;5.22;;
26042;SDS011;13818;52.156;5.382;2023-07-28T01:10:14;10.90;;;5.53;;
26042;SDS011;13818;52.156;5.382;2023-07-28T01:12:44;8.93;;;4.45;;
26042;SDS011;13818;52.156;5.382;2023-07-28T01:15:11;12.18;;;5.47;;
26042;SDS011;13818;52.156;5.382;2023-07-28T01:17:39;8.93;;;4.45;;
26042;SDS011;13818;52.156;5.382;2023-07-28T01:20:06;11.18;;;4.72;;
26042;SDS011;13818;52.156;5.382;2023-07-28T01:25:36;8.60;;;4.47;;
26042;SDS011;13818;52.156;5.382;2023-07-28T01:28:14;8.02;;;4.38;;
26042;SDS011;13818;52.156;5.382;2023-07-28T01:30:42;12.82;;;5.80;;
26042;SDS011;13818;52.156;5.382;2023-07-28T01:33:08;8.55;;;4.97;;
26042;SDS011;13818;52.156;5.382;2023-07-28T01:35:35;12.15;;;5.32;;
26042;SDS011;13818;52.156;5.382;2023-07-28T01:38:02;16.02;;;6.03;;
26042;SDS011;13818;52.156;5.382;2023-07-28T01:40:28;13.05;;;4.93;;
26042;SDS011;13818;52.156;5.382;2023-07-28T01:42:55;11.52;;;4.95;;
26042;SDS011;13818;52.156;5.382;2023-07-28T01:45:23;11.02;;;4.88;;
26042;SDS011;13818;52.156;5.382;2023-07-28T01:47:49;9.63;;;4.75;;
26042;SDS011;13818;52.156;5.382;2023-07-28T01:50:16;9.52;;;4.88;;
26042;SDS011;13818;52.156;5.382;2023-07-28T01:52:42;11.65;;;5.68;;
26042;SDS011;13818;52.156;5.382;2023-07-28T01:55:08;13.18;;;5.18;;
26042;SDS011;13818;52.156;5.382;2023-07-28T01:57:38;11.88;;;5.80;;
26042;SDS011;13818;52.156;5.382;2023-07-28T02:00:06;8.95;;;4.93;;
26042;SDS011;13818;52.156;5.382;2023-07-28T02:02:35;11.13;;;5.07;;
26042;SDS011;13818;52.156;5.382;2023-07-28T02:05:02;14.10;;;5.18;;
26042;SDS011;13818;52.156;5.382;2023-07-28T02:07:28;14.48;;;6.35;;
26042;SDS011;13818;52.156;5.382;2023-07-28T02:09:55;12.80;;;5.47;;
26042;SDS011;13818;52.156;5.382;2023-07-28T02:12:22;10.88;;;5.93;;
26042;SDS011;13818;52.156;5.382;2023-07-28T02:14:48;12.13;;;5.03;;
26042;SDS011;13818;52.156;5.382;2023-07-28T02:17:15;13.57;;;5.25;;
26042;SDS011;13818;52.156;5.382;2023-07-28T02:19:43;12.25;;;5.43;;
26042;SDS011;13818;52.156;5.382;2023-07-28T02:22:09;10.13;;;4.63;;
26042;SDS011;13818;52.156;5.382;2023-07-28T02:24:36;10.43;;;4.97;;
26042;SDS011;13818;52.156;5.382;2023-07-28T02:27:03;10.50;;;4.72;;
26042;SDS011;13818;52.156;5.382;2023-07-28T02:29:29;15.70;;;5.35;;
26042;SDS011;13818;52.156;5.382;2023-07-28T02:31:56;9.25;;;4.88;;
26042;SDS011;13818;52.156;5.382;2023-07-28T02:34:22;11.57;;;5.47;;
26042;SDS011;13818;52.156;5.382;2023-07-28T02:36:50;14.07;;;6.32;;
26042;SDS011;13818;52.156;5.382;2023-07-28T02:39:16;17.45;;;5.85;;
26042;SDS011;13818;52.156;5.382;2023-07-28T02:41:43;14.20;;;5.97;;
26042;SDS011;13818;52.156;5.382;2023-07-28T02:44:09;12.63;;;5.43;;
26042;SDS011;13818;52.156;5.382;2023-07-28T02:46:36;14.65;;;5.55;;
26042;SDS011;13818;52.156;5.382;2023-07-28T02:49:02;10.93;;;5.55;;
26042;SDS011;13818;52.156;5.382;2023-07-28T02:51:29;14.88;;;6.28;;
26042;SDS011;13818;52.156;5.382;2023-07-28T02:53:57;16.67;;;6.65;;
26042;SDS011;13818;52.156;5.382;2023-07-28T02:56:23;13.02;;;6.53;;
26042;SDS011;13818;52.156;5.382;2023-07-28T02:58:50;14.57;;;5.63;;
26042;SDS011;13818;52.156;5.382;2023-07-28T03:01:16;17.40;;;6.82;;
26042;SDS011;13818;52.156;5.382;2023-07-28T03:03:43;17.58;;;6.32;;
26042;SDS011;13818;52.156;5.382;2023-07-28T03:06:09;16.67;;;5.80;;
26042;SDS011;13818;52.156;5.382;2023-07-28T03:08:36;13.43;;;5.65;;
26042;SDS011;13818;52.156;5.382;2023-07-28T03:11:04;15.20;;;5.57;;
26042;SDS011;13818;52.156;5.382;2023-07-28T03:13:30;15.98;;;5.80;;
26042;SDS011;13818;52.156;5.382;2023-07-28T03:15:56;14.65;;;6.38;;
26042;SDS011;13818;52.156;5.382;2023-07-28T03:18:23;13.40;;;6.43;;
26042;SDS011;13818;52.156;5.382;2023-07-28T03:20:49;15.82;;;5.57;;
26042;SDS011;13818;52.156;5.382;2023-07-28T03:23:16;18.30;;;6.32;;
26042;SDS011;13818;52.156;5.382;2023-07-28T03:25:42;14.60;;;5.60;;
26042;SDS011;13818;52.156;5.382;2023-07-28T03:28:10;21.17;;;6.20;;
26042;SDS011;13818;52.156;5.382;2023-07-28T03:30:36;17.52;;;6.15;;
26042;SDS011;13818;52.156;5.382;2023-07-28T03:33:03;18.27;;;5.90;;
26042;SDS011;13818;52.156;5.382;2023-07-28T03:35:29;18.40;;;6.93;;
26042;SDS011;13818;52.156;5.382;2023-07-28T03:37:55;14.23;;;6.22;;
26042;SDS011;13818;52.156;5.382;2023-07-28T03:40:22;15.40;;;5.95;;
26042;SDS011;13818;52.156;5.382;2023-07-28T03:42:48;12.93;;;6.22;;
26042;SDS011;13818;52.156;5.382;2023-07-28T03:45:16;15.82;;;5.88;;
26042;SDS011;13818;52.156;5.382;2023-07-28T03:47:43;15.40;;;6.38;;
26042;SDS011;13818;52.156;5.382;2023-07-28T03:50:09;18.58;;;6.93;;
26042;SDS011;13818;52.156;5.382;2023-07-28T03:52:36;22.08;;;6.35;;
26042;SDS011;13818;52.156;5.382;2023-07-28T03:55:02;17.45;;;6.43;;
26042;SDS011;13818;52.156;5.382;2023-07-28T03:57:29;11.68;;;5.55;;
26042;SDS011;13818;52.156;5.382;2023-07-28T03:59:56;14.50;;;5.85;;
26042;SDS011;13818;52.156;5.382;2023-07-28T04:02:23;21.13;;;7.40;;
26042;SDS011;13818;52.156;5.382;2023-07-28T04:04:52;18.30;;;7.30;;
26042;SDS011;13818;52.156;5.382;2023-07-28T04:07:19;22.10;;;8.02;;
26042;SDS011;13818;52.156;5.382;2023-07-28T04:09:46;18.30;;;7.45;;
26042;SDS011;13818;52.156;5.382;2023-07-28T04:12:12;27.90;;;7.70;;
26042;SDS011;13818;52.156;5.382;2023-07-28T04:14:39;17.67;;;7.32;;
26042;SDS011;13818;52.156;5.382;2023-07-28T04:17:05;16.65;;;7.07;;
26042;SDS011;13818;52.156;5.382;2023-07-28T04:19:34;18.33;;;7.88;;
26042;SDS011;13818;52.156;5.382;2023-07-28T04:22:00;21.27;;;8.05;;
26042;SDS011;13818;52.156;5.382;2023-07-28T04:24:27;19.15;;;7.30;;
26042;SDS011;13818;52.156;5.382;2023-07-28T04:26:53;20.63;;;8.30;;
26042;SDS011;13818;52.156;5.382;2023-07-28T04:29:20;25.23;;;8.02;;
26042;SDS011;13818;52.156;5.382;2023-07-28T04:31:46;17.45;;;7.80;;
26042;SDS011;13818;52.156;5.382;2023-07-28T04:34:13;25.95;;;8.65;;
26042;SDS011;13818;52.156;5.382;2023-07-28T04:36:40;18.38;;;8.07;;
26042;SDS011;13818;52.156;5.382;2023-07-28T04:39:07;19.67;;;7.18;;
26042;SDS011;13818;52.156;5.382;2023-07-28T04:41:33;20.52;;;7.88;;
26042;SDS011;13818;52.156;5.382;2023-07-28T04:44:00;20.48;;;7.47;;
26042;SDS011;13818;52.156;5.382;2023-07-28T04:46:27;23.73;;;7.78;;
26042;SDS011;13818;52.156;5.382;2023-07-28T04:48:53;23.52;;;8.00;;
26042;SDS011;13818;52.156;5.382;2023-07-28T04:51:20;22.27;;;8.25;;
26042;SDS011;13818;52.156;5.382;2023-07-28T04:53:48;17.90;;;7.90;;
26042;SDS011;13818;52.156;5.382;2023-07-28T04:56:14;23.55;;;8.82;;
26042;SDS011;13818;52.156;5.382;2023-07-28T04:58:41;19.75;;;7.22;;
26042;SDS011;13818;52.156;5.382;2023-07-28T05:01:07;25.30;;;8.27;;
26042;SDS011;13818;52.156;5.382;2023-07-28T05:03:34;16.80;;;7.40;;
26042;SDS011;13818;52.156;5.382;2023-07-28T05:06:02;29.77;;;8.93;;
26042;SDS011;13818;52.156;5.382;2023-07-28T05:08:29;25.23;;;7.75;;
26042;SDS011;13818;52.156;5.382;2023-07-28T05:10:57;17.30;;;7.07;;
26042;SDS011;13818;52.156;5.382;2023-07-28T05:15:50;19.48;;;7.15;;
26042;SDS011;13818;52.156;5.382;2023-07-28T05:18:16;17.45;;;7.03;;
26042;SDS011;13818;52.156;5.382;2023-07-28T05:20:43;22.42;;;8.13;;
26042;SDS011;13818;52.156;5.382;2023-07-28T05:23:09;20.05;;;7.93;;
26042;SDS011;13818;52.156;5.382;2023-07-28T05:25:35;18.75;;;7.78;;
26042;SDS011;13818;52.156;5.382;2023-07-28T05:28:03;25.77;;;8.70;;
26042;SDS011;13818;52.156;5.382;2023-07-28T05:30:30;20.92;;;8.30;;
26042;SDS011;13818;52.156;5.382;2023-07-28T05:32:56;18.15;;;8.48;;
26042;SDS011;13818;52.156;5.382;2023-07-28T05:35:23;21.17;;;8.45;;
26042;SDS011;13818;52.156;5.382;2023-07-28T05:37:49;20.67;;;7.40;;
26042;SDS011;13818;52.156;5.382;2023-07-28T05:40:16;17.33;;;7.85;;
26042;SDS011;13818;52.156;5.382;2023-07-28T05:42:42;21.63;;;8.75;;
26042;SDS011;13818;52.156;5.382;2023-07-28T05:45:10;29.88;;;9.20;;
26042;SDS011;13818;52.156;5.382;2023-07-28T05:47:37;21.27;;;7.05;;
26042;SDS011;13818;52.156;5.382;2023-07-28T05:50:04;21.58;;;7.70;;
26042;SDS011;13818;52.156;5.382;2023-07-28T05:52:31;23.30;;;6.68;;
26042;SDS011;13818;52.156;5.382;2023-07-28T05:54:58;19.05;;;7.03;;
26042;SDS011;13818;52.156;5.382;2023-07-28T05:57:24;18.25;;;7.50;;
26042;SDS011;13818;52.156;5.382;2023-07-28T05:59:51;20.52;;;7.15;;
26042;SDS011;13818;52.156;5.382;2023-07-28T06:02:19;14.45;;;6.82;;
26042;SDS011;13818;52.156;5.382;2023-07-28T06:07:11;17.17;;;6.60;;
26042;SDS011;13818;52.156;5.382;2023-07-28T06:09:38;20.33;;;7.22;;
26042;SDS011;13818;52.156;5.382;2023-07-28T06:12:05;15.95;;;6.57;;
26042;SDS011;13818;52.156;5.382;2023-07-28T06:14:31;18.65;;;5.93;;
26042;SDS011;13818;52.156;5.382;2023-07-28T06:16:58;14.98;;;6.28;;
26042;SDS011;13818;52.156;5.382;2023-07-28T06:19:26;15.70;;;6.35;;
26042;SDS011;13818;52.156;5.382;2023-07-28T06:21:52;15.07;;;6.28;;
26042;SDS011;13818;52.156;5.382;2023-07-28T06:24:19;18.77;;;6.53;;
26042;SDS011;13818;52.156;5.382;2023-07-28T06:26:46;15.25;;;6.38;;
26042;SDS011;13818;52.156;5.382;2023-07-28T06:29:12;14.63;;;6.43;;
26042;SDS011;13818;52.156;5.382;2023-07-28T06:31:39;14.63;;;5.85;;
26042;SDS011;13818;52.156;5.382;2023-07-28T06:34:05;14.43;;;6.35;;
26042;SDS011;13818;52.156;5.382;2023-07-28T06:36:33;12.70;;;6.25;;
26042;SDS011;13818;52.156;5.382;2023-07-28T06:39:00;17.80;;;6.35;;
26042;SDS011;13818;52.156;5.382;2023-07-28T06:41:26;15.73;;;6.03;;
26042;SDS011;13818;52.156;5.382;2023-07-28T06:43:53;13.23;;;6.25;;
26042;SDS011;13818;52.156;5.382;2023-07-28T06:46:19;13.18;;;5.40;;
26042;SDS011;13818;52.156;5.382;2023-07-28T06:48:47;18.73;;;7.13;;
26042;SDS011;13818;52.156;5.382;2023-07-28T06:51:13;14.73;;;6.72;;
26042;SDS011;13818;52.156;5.382;2023-07-28T06:53:41;15.23;;;6.55;;
26042;SDS011;13818;52.156;5.382;2023-07-28T06:56:07;16.10;;;6.45;;
26042;SDS011;13818;52.156;5.382;2023-07-28T06:58:34;14.45;;;6.75;;
26042;SDS011;13818;52.156;5.382;2023-07-28T07:01:00;15.02;;;6.18;;
26042;SDS011;13818;52.156;5.382;2023-07-28T07:03:27;13.60;;;5.75;;
26042;SDS011;13818;52.156;5.382;2023-07-28T07:05:53;20.85;;;6.60;;
26042;SDS011;13818;52.156;5.382;2023-07-28T07:08:20;20.17;;;7.50;;
26042;SDS011;13818;52.156;5.382;2023-07-28T07:10:48;17.75;;;6.65;;
26042;SDS011;13818;52.156;5.382;2023-07-28T07:13:15;19.45;;;7.72;;
26042;SDS011;13818;52.156;5.382;2023-07-28T07:15:42;14.10;;;6.75;;
26042;SDS011;13818;52.156;5.382;2023-07-28T07:18:08;14.85;;;6.30;;
26042;SDS011;13818;52.156;5.382;2023-07-28T07:20:35;12.77;;;6.20;;
26042;SDS011;13818;52.156;5.382;2023-07-28T07:23:02;18.33;;;7.20;;
26042;SDS011;13818;52.156;5.382;2023-07-28T07:25:28;16.95;;;6.25;;
26042;SDS011;13818;52.156;5.382;2023-07-28T07:27:56;13.40;;;6.00;;
26042;SDS011;13818;52.156;5.382;2023-07-28T07:30:22;13.73;;;6.50;;
26042;SDS011;13818;52.156;5.382;2023-07-28T07:32:49;18.13;;;8.13;;
26042;SDS011;13818;52.156;5.382;2023-07-28T07:35:16;16.65;;;6.47;;
26042;SDS011;13818;52.156;5.382;2023-07-28T07:37:42;12.95;;;6.38;;
26042;SDS011;13818;52.156;5.382;2023-07-28T07:40:09;12.38;;;6.63;;
26042;SDS011;13818;52.156;5.382;2023-07-28T07:42:43;16.25;;;8.57;;
26042;SDS011;13818;52.156;5.382;2023-07-28T07:45:13;14.52;;;7.50;;
26042;SDS011;13818;52.156;5.382;2023-07-28T07:47:40;18.17;;;7.70;;
26042;SDS011;13818;52.156;5.382;2023-07-28T07:50:07;16.92;;;7.95;;
26042;SDS011;13818;52.156;5.382;2023-07-28T07:55:01;18.40;;;7.50;;
26042;SDS011;13818;52.156;5.382;2023-07-28T07:57:28;16.23;;;7.53;;
26042;SDS011;13818;52.156;5.382;2023-07-28T07:59:54;15.55;;;6.35;;
26042;SDS011;13818;52.156;5.382;2023-07-28T08:02:23;9.93;;;5.95;;
26042;SDS011;13818;52.156;5.382;2023-07-28T08:04:51;13.57;;;5.88;;
26042;SDS011;13818;52.156;5.382;2023-07-28T08:07:18;13.00;;;6.55;;
26042;SDS011;13818;52.156;5.382;2023-07-28T08:09:44;11.68;;;6.18;;
26042;SDS011;13818;52.156;5.382;2023-07-28T08:12:11;13.07;;;6.60;;
26042;SDS011;13818;52.156;5.382;2023-07-28T08:14:38;11.35;;;5.15;;
26042;SDS011;13818;52.156;5.382;2023-07-28T08:17:05;12.80;;;5.53;;
26042;SDS011;13818;52.156;5.382;2023-07-28T08:19:32;10.65;;;5.05;;
26042;SDS011;13818;52.156;5.382;2023-07-28T08:21:59;9.65;;;5.65;;
26042;SDS011;13818;52.156;5.382;2023-07-28T08:24:25;11.63;;;5.28;;
26042;SDS011;13818;52.156;5.382;2023-07-28T08:26:53;12.30;;;5.18;;
26042;SDS011;13818;52.156;5.382;2023-07-28T08:29:19;10.18;;;4.70;;
26042;SDS011;13818;52.156;5.382;2023-07-28T08:31:45;12.18;;;4.65;;
26042;SDS011;13818;52.156;5.382;2023-07-28T08:34:12;13.98;;;5.00;;
26042;SDS011;13818;52.156;5.382;2023-07-28T08:36:40;9.45;;;4.53;;
26042;SDS011;13818;52.156;5.382;2023-07-28T08:39:06;8.27;;;4.65;;
26042;SDS011;13818;52.156;5.382;2023-07-28T08:48:53;8.25;;;4.28;;
26042;SDS011;13818;52.156;5.382;2023-07-28T08:51:21;9.93;;;3.95;;
26042;SDS011;13818;52.156;5.382;2023-07-28T08:53:49;7.43;;;4.07;;
26042;SDS011;13818;52.156;5.382;2023-07-28T08:56:16;9.95;;;3.95;;
26042;SDS011;13818;52.156;5.382;2023-07-28T08:58:44;9.23;;;3.10;;
26042;SDS011;13818;52.156;5.382;2023-07-28T09:01:10;6.13;;;2.33;;
26042;SDS011;13818;52.156;5.382;2023-07-28T09:03:39;7.78;;;2.67;;
26042;SDS011;13818;52.156;5.382;2023-07-28T09:06:06;7.05;;;2.30;;
26042;SDS011;13818;52.156;5.382;2023-07-28T09:08:34;8.52;;;2.17;;
26042;SDS011;13818;52.156;5.382;2023-07-28T09:11:03;9.05;;;1.85;;
26042;SDS011;13818;52.156;5.382;2023-07-28T09:13:35;4.38;;;1.95;;
26042;SDS011;13818;52.156;5.382;2023-07-28T09:16:02;6.50;;;2.45;;
26042;SDS011;13818;52.156;5.382;2023-07-28T09:18:29;6.65;;;2.03;;
26042;SDS011;13818;52.156;5.382;2023-07-28T09:20:56;3.67;;;1.55;;
26042;SDS011;13818;52.156;5.382;2023-07-28T09:23:27;5.57;;;1.75;;
26042;SDS011;13818;52.156;5.382;2023-07-28T09:25:58;7.45;;;2.00;;
26042;SDS011;13818;52.156;5.382;2023-07-28T09:28:30;5.07;;;1.80;;
26042;SDS011;13818;52.156;5.382;2023-07-28T09:31:03;5.90;;;1.85;;
26042;SDS011;13818;52.156;5.382;2023-07-28T09:33:31;4.15;;;1.83;;
26042;SDS011;13818;52.156;5.382;2023-07-28T09:36:06;6.35;;;1.98;;
26042;SDS011;13818;52.156;5.382;2023-07-28T09:38:34;6.60;;;2.53;;
26042;SDS011;13818;52.156;5.382;2023-07-28T09:41:02;4.00;;;1.77;;
26042;SDS011;13818;52.156;5.382;2023-07-28T09:43:32;5.07;;;1.85;;
26042;SDS011;13818;52.156;5.382;2023-07-28T09:45:58;4.97;;;1.70;;
26042;SDS011;13818;52.156;5.382;2023-07-28T09:50:57;6.05;;;2.33;;
26042;SDS011;13818;52.156;5.382;2023-07-28T09:53:24;5.85;;;2.08;;
26042;SDS011;13818;52.156;5.382;2023-07-28T09:55:54;3.80;;;1.65;;
26042;SDS011;13818;52.156;5.382;2023-07-28T09:58:22;6.68;;;1.98;;
26042;SDS011;13818;52.156;5.382;2023-07-28T10:00:52;5.45;;;1.95;;
26042;SDS011;13818;52.156;5.382;2023-07-28T10:03:19;6.13;;;1.70;;
26042;SDS011;13818;52.156;5.382;2023-07-28T10:05:46;6.03;;;2.63;;
26042;SDS011;13818;52.156;5.382;2023-07-28T10:08:13;5.43;;;2.40;;
26042;SDS011;13818;52.156;5.382;2023-07-28T10:10:41;5.00;;;2.50;;
26042;SDS011;13818;52.156;5.382;2023-07-28T10:13:18;5.55;;;2.83;;
26042;SDS011;13818;52.156;5.382;2023-07-28T10:15:46;2.97;;;2.20;;
26042;SDS011;13818;52.156;5.382;2023-07-28T10:18:14;4.82;;;2.40;;
26042;SDS011;13818;52.156;5.382;2023-07-28T10:23:12;4.63;;;2.42;;
26042;SDS011;13818;52.156;5.382;2023-07-28T10:25:41;6.70;;;3.28;;
26042;SDS011;13818;52.156;5.382;2023-07-28T10:30:54;3.88;;;2.10;;
26042;SDS011;13818;52.156;5.382;2023-07-28T10:33:32;4.55;;;2.67;;
26042;SDS011;13818;52.156;5.382;2023-07-28T10:36:10;3.45;;;2.45;;
26042;SDS011;13818;52.156;5.382;2023-07-28T10:38:38;4.22;;;2.50;;
26042;SDS011;13818;52.156;5.382;2023-07-28T10:41:05;6.43;;;2.47;;
26042;SDS011;13818;52.156;5.382;2023-07-28T10:43:34;5.18;;;2.50;;
26042;SDS011;13818;52.156;5.382;2023-07-28T10:46:01;6.38;;;2.40;;
26042;SDS011;13818;52.156;5.382;2023-07-28T10:48:28;4.50;;;2.33;;
26042;SDS011;13818;52.156;5.382;2023-07-28T10:50:56;4.90;;;3.45;;
26042;SDS011;13818;52.156;5.382;2023-07-28T10:53:22;5.88;;;2.92;;
26042;SDS011;13818;52.156;5.382;2023-07-28T10:55:48;3.28;;;2.17;;
26042;SDS011;13818;52.156;5.382;2023-07-28T10:58:16;5.57;;;3.00;;
26042;SDS011;13818;52.156;5.382;2023-07-28T11:00:42;4.53;;;2.40;;
26042;SDS011;13818;52.156;5.382;2023-07-28T11:03:08;5.13;;;2.95;;
26042;SDS011;13818;52.156;5.382;2023-07-28T11:05:35;9.68;;;3.20;;
26042;SDS011;13818;52.156;5.382;2023-07-28T11:08:05;4.68;;;2.65;;
26042;SDS011;13818;52.156;5.382;2023-07-28T11:10:34;4.38;;;2.40;;
26042;SDS011;13818;52.156;5.382;2023-07-28T11:13:01;5.00;;;2.40;;
26042;SDS011;13818;52.156;5.382;2023-07-28T11:15:29;3.58;;;2.30;;
26042;SDS011;13818;52.156;5.382;2023-07-28T11:17:55;3.40;;;2.38;;
26042;SDS011;13818;52.156;5.382;2023-07-28T11:20:22;4.90;;;3.13;;
26042;SDS011;13818;52.156;5.382;2023-07-28T11:22:52;6.07;;;2.90;;
26042;SDS011;13818;52.156;5.382;2023-07-28T11:25:20;5.63;;;2.75;;
26042;SDS011;13818;52.156;5.382;2023-07-28T11:27:47;7.82;;;3.38;;
26042;SDS011;13818;52.156;5.382;2023-07-28T11:30:14;4.60;;;2.22;;
26042;SDS011;13818;52.156;5.382;2023-07-28T11:32:42;4.93;;;2.30;;
26042;SDS011;13818;52.156;5.382;2023-07-28T11:35:10;3.63;;;2.58;;
26042;SDS011;13818;52.156;5.382;2023-07-28T11:37:38;6.05;;;2.47;;
26042;SDS011;13818;52.156;5.382;2023-07-28T11:40:06;3.60;;;2.33;;
26042;SDS011;13818;52.156;5.382;2023-07-28T11:42:37;4.13;;;2.67;;
26042;SDS011;13818;52.156;5.382;2023-07-28T11:45:05;4.18;;;2.78;;
26042;SDS011;13818;52.156;5.382;2023-07-28T11:47:32;4.38;;;2.67;;
26042;SDS011;13818;52.156;5.382;2023-07-28T11:49:59;4.93;;;2.90;;
26042;SDS011;13818;52.156;5.382;2023-07-28T11:52:29;4.38;;;2.63;;
26042;SDS011;13818;52.156;5.382;2023-07-28T11:54:56;2.95;;;2.13;;
26042;SDS011;13818;52.156;5.382;2023-07-28T11:57:22;8.88;;;2.60;;
26042;SDS011;13818;52.156;5.382;2023-07-28T11:59:53;3.53;;;1.88;;
26042;SDS011;13818;52.156;5.382;2023-07-28T12:02:24;4.30;;;2.30;;
26042;SDS011;13818;52.156;5.382;2023-07-28T12:04:52;4.32;;;1.70;;
26042;SDS011;13818;52.156;5.382;2023-07-28T12:07:20;4.22;;;2.42;;
26042;SDS011;13818;52.156;5.382;2023-07-28T12:09:54;5.63;;;2.63;;
26042;SDS011;13818;52.156;5.382;2023-07-28T12:12:24;4.47;;;2.05;;
26042;SDS011;13818;52.156;5.382;2023-07-28T12:14:53;4.78;;;1.98;;
26042;SDS011;13818;52.156;5.382;2023-07-28T12:17:20;6.25;;;2.28;;
26042;SDS011;13818;52.156;5.382;2023-07-28T12:19:55;4.40;;;2.58;;
26042;SDS011;13818;52.156;5.382;2023-07-28T12:22:23;5.50;;;3.03;;
26042;SDS011;13818;52.156;5.382;2023-07-28T12:24:49;6.72;;;2.38;;
26042;SDS011;13818;52.156;5.382;2023-07-28T12:27:16;7.25;;;2.95;;
26042;SDS011;13818;52.156;5.382;2023-07-28T12:29:45;7.78;;;2.50;;
26042;SDS011;13818;52.156;5.382;2023-07-28T12:32:13;5.97;;;2.95;;
26042;SDS011;13818;52.156;5.382;2023-07-28T12:37:06;3.33;;;2.20;;
26042;SDS011;13818;52.156;5.382;2023-07-28T12:39:33;4.20;;;2.97;;
26042;SDS011;13818;52.156;5.382;2023-07-28T12:42:04;5.60;;;3.50;;
26042;SDS011;13818;52.156;5.382;2023-07-28T12:44:31;6.18;;;3.17;;
26042;SDS011;13818;52.156;5.382;2023-07-28T12:46:57;6.07;;;3.80;;
26042;SDS011;13818;52.156;5.382;2023-07-28T12:49:25;4.32;;;2.95;;
26042;SDS011;13818;52.156;5.382;2023-07-28T12:51:54;9.13;;;3.17;;
26042;SDS011;13818;52.156;5.382;2023-07-28T12:54:21;3.83;;;2.60;;
26042;SDS011;13818;52.156;5.382;2023-07-28T12:56:47;4.20;;;3.08;;
26042;SDS011;13818;52.156;5.382;2023-07-28T12:59:14;4.85;;;2.90;;
26042;SDS011;13818;52.156;5.382;2023-07-28T13:01:41;4.45;;;3.00;;
26042;SDS011;13818;52.156;5.382;2023-07-28T13:04:07;3.30;;;2.80;;
26042;SDS011;13818;52.156;5.382;2023-07-28T13:06:35;5.15;;;2.58;;
26042;SDS011;13818;52.156;5.382;2023-07-28T13:09:02;8.30;;;3.58;;
26042;SDS011;13818;52.156;5.382;2023-07-28T13:11:29;5.13;;;2.80;;
26042;SDS011;13818;52.156;5.382;2023-07-28T13:13:56;4.32;;;2.95;;
26042;SDS011;13818;52.156;5.382;2023-07-28T13:16:23;3.53;;;2.55;;
26042;SDS011;13818;52.156;5.382;2023-07-28T13:18:49;4.45;;;2.28;;
26042;SDS011;13818;52.156;5.382;2023-07-28T13:21:16;7.63;;;3.08;;
26042;SDS011;13818;52.156;5.382;2023-07-28T13:23:43;8.60;;;2.17;;
26042;SDS011;13818;52.156;5.382;2023-07-28T13:26:10;5.32;;;2.03;;
26042;SDS011;13818;52.156;5.382;2023-07-28T13:28:36;3.22;;;1.90;;
26042;SDS011;13818;52.156;5.382;2023-07-28T13:31:04;3.15;;;2.15;;
26042;SDS011;13818;52.156;5.382;2023-07-28T13:33:31;7.93;;;1.90;;
26042;SDS011;13818;52.156;5.382;2023-07-28T13:35:57;7.07;;;2.63;;
26042;SDS011;13818;52.156;5.382;2023-07-28T13:38:24;2.40;;;2.05;;
26042;SDS011;13818;52.156;5.382;2023-07-28T13:40:53;5.68;;;2.67;;
26042;SDS011;13818;52.156;5.382;2023-07-28T13:43:19;3.30;;;2.38;;
26042;SDS011;13818;52.156;5.382;2023-07-28T13:45:45;4.65;;;2.30;;
26042;SDS011;13818;52.156;5.382;2023-07-28T13:48:12;3.35;;;2.10;;
26042;SDS011;13818;52.156;5.382;2023-07-28T13:50:39;3.70;;;2.60;;
26042;SDS011;13818;52.156;5.382;2023-07-28T13:53:05;4.88;;;2.60;;
26042;SDS011;13818;52.156;5.382;2023-07-28T13:55:32;3.20;;;1.90;;
26042;SDS011;13818;52.156;5.382;2023-07-28T13:57:59;3.15;;;2.38;;
26042;SDS011;13818;52.156;5.382;2023-07-28T14:02:52;3.83;;;2.05;;
26042;SDS011;13818;52.156;5.382;2023-07-28T14:05:19;3.75;;;2.10;;
26042;SDS011;13818;52.156;5.382;2023-07-28T14:07:45;5.80;;;2.10;;
26042;SDS011;13818;52.156;5.382;2023-07-28T14:10:12;3.80;;;2.33;;
26042;SDS011;13818;52.156;5.382;2023-07-28T14:12:38;4.78;;;2.17;;
26042;SDS011;13818;52.156;5.382;2023-07-28T14:15:07;3.15;;;1.90;;
26042;SDS011;13818;52.156;5.382;2023-07-28T14:17:34;4.90;;;2.20;;
26042;SDS011;13818;52.156;5.382;2023-07-28T14:20:03;7.13;;;2.72;;
26042;SDS011;13818;52.156;5.382;2023-07-28T14:22:31;4.03;;;2.17;;
26042;SDS011;13818;52.156;5.382;2023-07-28T14:24:57;5.13;;;2.20;;
26042;SDS011;13818;52.156;5.382;2023-07-28T14:27:23;3.85;;;2.03;;
26042;SDS011;13818;52.156;5.382;2023-07-28T14:29:50;5.93;;;2.17;;
26042;SDS011;13818;52.156;5.382;2023-07-28T14:32:18;5.78;;;2.03;;
26042;SDS011;13818;52.156;5.382;2023-07-28T14:37:10;2.78;;;2.00;;
26042;SDS011;13818;52.156;5.382;2023-07-28T14:39:37;4.80;;;1.92;;
26042;SDS011;13818;52.156;5.382;2023-07-28T14:42:04;5.53;;;3.03;;
26042;SDS011;13818;52.156;5.382;2023-07-28T14:44:31;4.45;;;2.17;;
26042;SDS011;13818;52.156;5.382;2023-07-28T14:46:57;2.40;;;2.10;;
26042;SDS011;13818;52.156;5.382;2023-07-28T14:49:25;5.57;;;2.40;;
26042;SDS011;13818;52.156;5.382;2023-07-28T14:51:52;3.65;;;2.20;;
26042;SDS011;13818;52.156;5.382;2023-07-28T14:54:19;4.80;;;2.75;;
26042;SDS011;13818;52.156;5.382;2023-07-28T14:56:45;5.95;;;2.55;;
26042;SDS011;13818;52.156;5.382;2023-07-28T14:59:12;4.28;;;1.95;;
26042;SDS011;13818;52.156;5.382;2023-07-28T15:01:39;5.20;;;2.90;;
26042;SDS011;13818;52.156;5.382;2023-07-28T15:04:05;6.47;;;3.13;;
26042;SDS011;13818;52.156;5.382;2023-07-28T15:06:33;4.40;;;2.88;;
26042;SDS011;13818;52.156;5.382;2023-07-28T15:11:26;6.55;;;3.25;;
26042;SDS011;13818;52.156;5.382;2023-07-28T15:13:52;7.80;;;3.58;;
26042;SDS011;13818;52.156;5.382;2023-07-28T15:16:19;5.75;;;3.58;;
26042;SDS011;13818;52.156;5.382;2023-07-28T15:18:45;4.63;;;2.53;;